Time;durP1;ratioP1;P1;durP2;ratioP2;P2;SDS_P1;SDS_P2;PMS_P1;PMS_P2;Temp;Humidity;BMP_temperature;BMP_pressure;BME280_temperature;BME280_humidity;BME280_pressure;Samples;Min_cycle;Max_cycle;Signal;HPM_P1;HPM_P2
2020/12/19 00:01:07;;;;;;;24.10;14.05;;;;;;;1.94;97.42;102009.47;4959707;28;20039;-77
2020/12/19 00:03:32;;;;;;;22.85;12.50;;;;;;;1.93;97.31;102006.94;4979634;28;20752;-77
2020/12/19 00:05:58;;;;;;;23.60;13.43;;;;;;;1.92;97.19;102000.94;4980679;28;20039;-76
2020/12/19 00:08:23;;;;;;;20.17;12.57;;;;;;;1.89;97.10;102006.22;4995639;28;20042;-77
2020/12/19 00:10:49;;;;;;;21.00;12.18;;;;;;;1.80;97.15;101998.81;4991882;28;20034;-77
2020/12/19 00:13:14;;;;;;;24.25;13.50;;;;;;;1.79;97.22;101988.50;4977594;28;20038;-76
2020/12/19 00:15:40;;;;;;;23.95;13.55;;;;;;;1.83;97.12;101992.66;4976376;28;20516;-77
2020/12/19 00:18:05;;;;;;;22.98;13.73;;;;;;;1.82;97.21;101988.41;4962570;28;20045;-78
2020/12/19 00:20:31;;;;;;;25.48;13.52;;;;;;;1.90;97.45;101992.38;4980911;28;20045;-77
2020/12/19 00:22:56;;;;;;;26.90;13.80;;;;;;;1.92;97.36;101994.88;4979346;28;20049;-77
2020/12/19 00:25:22;;;;;;;26.92;14.40;;;;;;;1.86;97.34;101992.53;4991468;28;20065;-78
2020/12/19 00:27:48;;;;;;;23.65;14.35;;;;;;;1.83;97.39;101990.06;4988740;28;20038;-78
2020/12/19 00:30:13;;;;;;;28.42;14.13;;;;;;;1.73;97.31;101976.66;4990726;28;20038;-77
2020/12/19 00:32:40;;;;;;;26.08;14.32;;;;;;;1.77;97.75;101979.97;5005065;28;20034;-76
2020/12/19 00:35:06;;;;;;;23.48;13.60;;;;;;;1.83;97.33;101980.59;4999177;28;20041;-77
2020/12/19 00:37:31;;;;;;;23.98;13.95;;;;;;;1.77;97.36;101982.53;4999116;28;20101;-76
2020/12/19 00:39:57;;;;;;;31.45;14.50;;;;;;;1.71;97.25;101968.97;4997438;28;20034;-78
2020/12/19 00:42:22;;;;;;;20.35;12.38;;;;;;;1.72;97.09;101967.22;4990667;28;20052;-78
2020/12/19 00:44:48;;;;;;;23.40;13.35;;;;;;;1.70;97.14;101969.88;4980470;28;20046;-74
2020/12/19 00:47:13;;;;;;;22.77;14.65;;;;;;;1.73;97.31;101966.31;4979404;28;20477;-77
2020/12/19 00:49:39;;;;;;;25.45;14.05;;;;;;;1.71;97.41;101968.97;4972285;28;20145;-76
2020/12/19 00:52:04;;;;;;;26.73;14.75;;;;;;;1.66;97.41;101959.72;4999198;28;20407;-78
2020/12/19 00:54:30;;;;;;;24.25;14.50;;;;;;;1.68;97.36;101961.31;5009484;28;20089;-77
2020/12/19 00:56:55;;;;;;;22.67;13.60;;;;;;;1.66;97.32;101960.53;5000932;28;20056;-75
2020/12/19 00:59:21;;;;;;;25.90;14.82;;;;;;;1.66;97.37;101957.94;4981598;28;20041;-77
2020/12/19 01:01:46;;;;;;;28.95;14.98;;;;;;;1.58;97.54;101959.97;4970834;28;20066;-77
2020/12/19 01:04:12;;;;;;;24.38;14.80;;;;;;;1.64;97.61;101959.75;5005250;28;20088;-78
2020/12/19 01:06:37;;;;;;;29.20;15.07;;;;;;;1.58;97.25;101951.38;4997520;28;20040;-77
2020/12/19 01:09:05;;;;;;;27.83;14.60;;;;;;;1.56;97.32;101956.59;4984000;28;20496;-77
2020/12/19 01:11:32;;;;;;;25.58;13.75;;;;;;;1.52;97.12;101958.47;4965692;28;20113;-77
2020/12/19 01:13:57;;;;;;;26.95;15.15;;;;;;;1.55;97.39;101957.53;4999287;28;20041;-79
2020/12/19 01:16:25;;;;;;;27.75;15.05;;;;;;;1.48;97.59;101959.47;4981180;28;20034;-79
2020/12/19 01:18:52;;;;;;;26.77;14.23;;;;;;;1.48;97.59;101943.13;5009271;28;20053;-77
2020/12/19 01:21:20;;;;;;;24.30;14.60;;;;;;;1.43;97.52;101948.50;4983014;28;20433;-76
2020/12/19 01:23:47;;;;;;;26.70;14.02;;;;;;;1.45;97.29;101953.59;4996273;28;20030;-76
2020/12/19 01:26:13;;;;;;;26.80;14.55;;;;;;;1.43;97.16;101950.22;4989349;28;20165;-76
2020/12/19 01:28:40;;;;;;;22.60;13.77;;;;;;;1.43;97.29;101958.84;4995798;28;20045;-76
2020/12/19 01:31:08;;;;;;;25.65;14.65;;;;;;;1.41;97.49;101954.59;4985204;28;20042;-76
2020/12/19 01:33:34;;;;;;;27.17;14.32;;;;;;;1.42;97.38;101948.53;4985525;28;20037;-77
2020/12/19 01:36:01;;;;;;;23.13;15.07;;;;;;;1.32;97.32;101950.63;4995881;28;20035;-76
2020/12/19 01:38:26;;;;;;;28.05;15.88;;;;;;;1.29;97.54;101943.81;4981702;28;20034;-78
2020/12/19 01:40:54;;;;;;;27.20;15.25;;;;;;;1.28;97.47;101936.97;4996487;28;20042;-76
2020/12/19 01:43:20;;;;;;;28.13;15.57;;;;;;;1.29;97.60;101940.41;5016980;28;20057;-78
2020/12/19 01:45:48;;;;;;;25.67;16.40;;;;;;;1.31;97.65;101941.19;4992701;28;20038;-77
2020/12/19 01:48:22;;;;;;;29.08;16.10;;;;;;;1.35;97.31;101945.34;4974077;28;20039;-76
2020/12/19 01:50:49;;;;;;;29.55;17.15;;;;;;;1.23;97.62;101930.28;5005938;28;20507;-77
2020/12/19 01:53:16;;;;;;;33.72;18.35;;;;;;;1.31;97.74;101936.00;4999820;28;20030;-77
2020/12/19 01:55:43;;;;;;;28.60;18.25;;;;;;;1.32;98.03;101943.72;5001852;28;20091;-76
2020/12/19 01:58:09;;;;;;;31.23;16.80;;;;;;;1.34;97.85;101936.75;4981524;28;20026;-77
2020/12/19 02:00:41;;;;;;;32.53;17.33;;;;;;;1.32;97.97;101932.53;4990786;28;20049;-76
2020/12/19 02:03:07;;;;;;;33.67;18.80;;;;;;;1.34;97.63;101930.75;4989250;28;20130;-75
2020/12/19 02:05:36;;;;;;;32.38;17.90;;;;;;;1.39;97.60;101930.56;4975552;28;20049;-77
2020/12/19 02:08:03;;;;;;;38.15;19.15;;;;;;;1.36;97.72;101926.34;4976503;28;20133;-77
2020/12/19 02:10:32;;;;;;;32.38;16.58;;;;;;;1.34;97.74;101931.56;4988738;28;20102;-77
2020/12/19 02:13:05;;;;;;;34.22;17.90;;;;;;;1.31;97.77;101923.91;4977807;28;20041;-77
2020/12/19 02:15:45;;;;;;;26.27;16.00;;;;;;;1.27;97.88;101926.69;4978399;28;20031;-77
2020/12/19 02:18:11;;;;;;;29.88;16.95;;;;;;;1.27;97.86;101924.94;4990022;28;20049;-77
2020/12/19 02:20:37;;;;;;;35.85;18.67;;;;;;;1.32;97.67;101924.78;4970956;28;20408;-77
2020/12/19 02:23:04;;;;;;;36.78;18.90;;;;;;;1.34;97.73;101915.22;4990448;28;20050;-77
2020/12/19 02:25:34;;;;;;;32.13;18.48;;;;;;;1.32;97.79;101917.03;4963125;28;20070;-77
2020/12/19 02:28:02;;;;;;;28.67;15.73;;;;;;;1.32;97.87;101910.09;4974951;28;20038;-78
2020/12/19 02:30:27;;;;;;;33.08;17.92;;;;;;;1.39;97.83;101915.88;5009793;28;20038;-77
2020/12/19 02:32:53;;;;;;;30.67;17.98;;;;;;;1.32;97.57;101915.28;4964218;28;20037;-77
2020/12/19 02:35:19;;;;;;;37.08;18.42;;;;;;;1.31;97.86;101915.34;4976888;28;20026;-76
2020/12/19 02:37:44;;;;;;;32.83;18.35;;;;;;;1.25;97.59;101910.41;4979790;28;20421;-77
2020/12/19 02:40:09;;;;;;;32.25;17.85;;;;;;;1.25;97.95;101915.56;4996812;28;20057;-77
2020/12/19 02:42:35;;;;;;;39.78;19.05;;;;;;;1.21;97.90;101916.59;5009324;28;20045;-77
2020/12/19 02:45:00;;;;;;;34.95;18.77;;;;;;;1.19;97.90;101924.41;4980911;28;20046;-75
2020/12/19 02:47:26;;;;;;;34.80;20.23;;;;;;;1.19;98.17;101914.06;4993984;28;20046;-77
2020/12/19 02:49:51;;;;;;;34.85;19.15;;;;;;;1.23;98.21;101922.53;4990099;28;20070;-77
2020/12/19 02:52:17;;;;;;;37.17;19.02;;;;;;;1.26;97.81;101915.53;5016226;28;20050;-75
2020/12/19 02:54:42;;;;;;;35.28;20.85;;;;;;;1.16;97.80;101911.56;4999736;28;20072;-76
2020/12/19 02:57:08;;;;;;;31.65;19.02;;;;;;;1.19;97.83;101908.03;4990469;28;20038;-78
2020/12/19 02:59:33;;;;;;;36.05;19.85;;;;;;;1.19;98.23;101913.19;4982932;28;20731;-77
2020/12/19 03:01:59;;;;;;;33.83;19.13;;;;;;;1.22;97.87;101907.91;4994650;28;20033;-78
2020/12/19 03:04:24;;;;;;;34.15;18.83;;;;;;;1.23;97.79;101902.69;5004217;28;20069;-77
2020/12/19 03:06:50;;;;;;;36.83;19.35;;;;;;;1.19;97.70;101905.44;4968019;28;20416;-75
2020/12/19 03:09:18;;;;;;;34.67;19.73;;;;;;;1.16;97.83;101907.25;5011794;28;20069;-78
2020/12/19 03:11:44;;;;;;;32.85;19.23;;;;;;;1.13;98.11;101904.78;4994778;28;20592;-78
2020/12/19 03:14:09;;;;;;;46.22;22.25;;;;;;;1.08;98.23;101895.53;4994024;28;20225;-77
2020/12/19 03:16:35;;;;;;;41.50;21.58;;;;;;;1.10;98.27;101907.47;4976394;28;20031;-77
2020/12/19 03:19:00;;;;;;;42.70;21.73;;;;;;;1.14;98.22;101905.63;4976801;28;20490;-80
2020/12/19 03:21:26;;;;;;;43.30;21.77;;;;;;;1.13;98.19;101899.63;4992273;28;20042;-78
2020/12/19 03:23:51;;;;;;;39.92;21.10;;;;;;;1.09;98.42;101887.72;4976412;28;20085;-79
2020/12/19 03:26:17;;;;;;;47.17;23.55;;;;;;;1.09;98.61;101895.47;4960353;28;20034;-77
2020/12/19 03:28:42;;;;;;;40.47;22.13;;;;;;;1.13;98.00;101891.88;4992175;28;20050;-78
2020/12/19 03:31:08;;;;;;;41.08;21.73;;;;;;;1.14;98.31;101890.94;4983953;28;20049;-77
2020/12/19 03:33:33;;;;;;;41.08;22.98;;;;;;;1.16;98.55;101886.56;5003949;28;20037;-78
2020/12/19 03:35:59;;;;;;;38.97;21.40;;;;;;;1.14;97.95;101874.63;4979104;28;20071;-78
2020/12/19 03:38:24;;;;;;;42.53;22.17;;;;;;;1.15;98.28;101865.97;4979514;28;20125;-78
2020/12/19 03:40:49;;;;;;;45.10;23.75;;;;;;;1.21;98.34;101868.31;4997019;28;20038;-78
2020/12/19 03:43:15;;;;;;;45.53;24.80;;;;;;;1.16;98.15;101867.66;4995499;28;20057;-78
2020/12/19 03:45:40;;;;;;;42.05;23.10;;;;;;;1.08;98.38;101862.75;4985453;28;20497;-76
2020/12/19 03:48:06;;;;;;;46.30;24.48;;;;;;;1.14;98.34;101866.84;4976725;28;20031;-77
2020/12/19 03:50:31;;;;;;;46.00;23.70;;;;;;;1.14;98.57;101870.28;5016490;28;20099;-78
2020/12/19 03:52:57;;;;;;;41.00;22.35;;;;;;;1.09;98.77;101867.06;4978112;28;20042;-78
2020/12/19 03:55:22;;;;;;;45.22;24.58;;;;;;;1.13;98.35;101868.59;4967462;28;20124;-78
2020/12/19 03:57:48;;;;;;;49.35;24.83;;;;;;;1.11;98.48;101862.66;4983356;28;20038;-78
2020/12/19 04:00:13;;;;;;;48.20;25.98;;;;;;;1.16;98.67;101855.56;4983422;28;20456;-77
2020/12/19 04:02:39;;;;;;;55.13;27.83;;;;;;;1.09;98.38;101848.97;5015406;28;20048;-77
2020/12/19 04:05:09;;;;;;;45.20;25.20;;;;;;;1.11;98.43;101852.31;4984271;28;20456;-78
2020/12/19 04:07:35;;;;;;;53.83;26.33;;;;;;;0.97;98.64;101827.00;4964209;28;20035;-77
2020/12/19 04:10:01;;;;;;;49.65;26.48;;;;;;;1.05;98.68;101846.53;4994864;28;20026;-78
2020/12/19 04:12:26;;;;;;;52.60;27.10;;;;;;;1.13;98.74;101857.41;4979412;28;20060;-78
2020/12/19 04:14:51;;;;;;;47.50;25.95;;;;;;;1.08;98.30;101839.50;4966591;28;20045;-77
2020/12/19 04:17:17;;;;;;;52.33;26.80;;;;;;;1.16;98.64;101846.97;5000227;28;20110;-79
2020/12/19 04:19:42;;;;;;;50.17;25.80;;;;;;;1.16;98.71;101841.78;4966926;28;20396;-78
2020/12/19 04:22:08;;;;;;;50.25;24.17;;;;;;;1.11;98.35;101844.56;4998229;28;20038;-78
2020/12/19 04:24:34;;;;;;;48.45;25.02;;;;;;;1.09;98.11;101833.47;4982682;28;20039;-78
2020/12/19 04:27:00;;;;;;;51.95;26.00;;;;;;;1.06;98.07;101840.47;4981392;28;20505;-77
2020/12/19 04:29:26;;;;;;;49.20;26.02;;;;;;;1.12;98.59;101841.06;4998971;28;20042;-78
2020/12/19 04:31:55;;;;;;;55.28;27.65;;;;;;;1.07;98.27;101848.16;4998340;28;20492;-78
2020/12/19 04:34:22;;;;;;;52.17;26.20;;;;;;;1.09;98.34;101842.94;4962612;28;20050;-78
2020/12/19 04:36:48;;;;;;;56.90;27.73;;;;;;;1.09;98.46;101843.78;4979352;28;20042;-77
2020/12/19 04:39:13;;;;;;;51.65;25.67;;;;;;;1.04;98.21;101834.53;4963326;28;20038;-78
2020/12/19 04:41:39;;;;;;;55.47;28.00;;;;;;;1.08;98.48;101841.25;4997756;28;20038;-78
2020/12/19 04:44:04;;;;;;;60.72;29.50;;;;;;;1.11;98.79;101842.00;4965542;28;20443;-78
2020/12/19 04:46:31;;;;;;;56.60;27.25;;;;;;;1.04;98.63;101835.38;5005272;28;20037;-79
2020/12/19 04:48:58;;;;;;;57.80;27.70;;;;;;;1.01;98.68;101825.13;4992147;28;20473;-78
2020/12/19 04:51:26;;;;;;;57.08;27.70;;;;;;;1.08;98.84;101839.50;5034723;28;20037;-76
2020/12/19 04:53:51;;;;;;;66.82;29.55;;;;;;;1.12;99.15;101837.66;5018768;28;20069;-77
2020/12/19 04:56:17;;;;;;;57.65;29.23;;;;;;;1.10;98.94;101832.53;5001478;28;20065;-78
2020/12/19 04:58:43;;;;;;;61.13;27.98;;;;;;;1.08;98.89;101826.59;5019217;28;20087;-78
2020/12/19 05:01:08;;;;;;;58.42;27.98;;;;;;;1.03;98.52;101831.09;4980883;28;20404;-79
2020/12/19 05:03:34;;;;;;;65.50;28.95;;;;;;;1.09;98.59;101827.41;4986407;28;20472;-78
2020/12/19 05:06:00;;;;;;;61.72;28.73;;;;;;;1.09;98.78;101835.16;4978666;28;20042;-78
2020/12/19 05:08:25;;;;;;;62.45;30.20;;;;;;;1.14;98.98;101836.69;4963185;28;20089;-79
2020/12/19 05:10:52;;;;;;;54.17;27.27;;;;;;;1.17;98.37;101828.81;4981753;28;20052;-77
2020/12/19 05:13:20;;;;;;;54.25;28.98;;;;;;;1.09;98.65;101832.59;4981772;28;20111;-79
2020/12/19 05:15:46;;;;;;;57.85;28.85;;;;;;;0.97;98.63;101814.06;4997885;28;20042;-77
2020/12/19 05:18:11;;;;;;;56.58;27.27;;;;;;;1.04;98.63;101825.03;4981926;28;20038;-77
2020/12/19 05:20:38;;;;;;;67.60;30.55;;;;;;;1.04;98.77;101822.44;4980487;28;20034;-78
2020/12/19 05:23:07;;;;;;;61.88;30.10;;;;;;;1.05;98.58;101828.44;4947925;28;20472;-79
2020/12/19 05:25:37;;;;;;;65.13;30.75;;;;;;;1.08;98.96;101818.84;5014704;28;20053;-78
2020/12/19 05:28:02;;;;;;;59.65;26.42;;;;;;;1.00;98.51;101807.97;4998729;28;20124;-77
2020/12/19 05:30:29;;;;;;;58.28;28.13;;;;;;;1.00;98.53;101817.44;4994830;28;20785;-76
2020/12/19 05:32:55;;;;;;;62.30;29.23;;;;;;;0.98;98.94;101825.28;5015679;28;20030;-79
2020/12/19 05:35:22;;;;;;;58.10;27.00;;;;;;;0.97;98.59;101815.81;4982910;28;20061;-77
2020/12/19 05:38:03;;;;;;;58.92;27.98;;;;;;;0.96;98.84;101817.56;4992801;28;20084;-77
2020/12/19 05:40:30;;;;;;;54.47;26.08;;;;;;;1.03;98.92;101819.91;5015750;28;20037;-77
2020/12/19 05:42:56;;;;;;;56.80;27.88;;;;;;;1.09;98.94;101822.25;5005649;28;20121;-78
2020/12/19 05:45:23;;;;;;;58.45;29.58;;;;;;;1.03;98.57;101818.16;4996869;28;20127;-78
2020/12/19 05:47:50;;;;;;;58.38;26.77;;;;;;;1.00;98.78;101807.97;4996122;28;20073;-78
2020/12/19 05:50:17;;;;;;;58.33;28.50;;;;;;;1.04;98.49;101816.44;4945815;28;20042;-75
2020/12/19 05:52:42;;;;;;;66.53;29.80;;;;;;;1.04;98.95;101811.28;4984853;28;20053;-77
2020/12/19 05:55:11;;;;;;;61.05;28.20;;;;;;;1.06;98.88;101814.63;4973688;28;20034;-77
2020/12/19 05:57:38;;;;;;;58.20;28.13;;;;;;;1.01;98.92;101816.53;5013846;28;20034;-76
2020/12/19 06:00:17;;;;;;;62.22;27.90;;;;;;;1.00;98.96;101814.84;4997560;28;20088;-77
2020/12/19 06:02:44;;;;;;;58.83;28.90;;;;;;;1.04;98.58;101811.28;4992880;28;20088;-78
2020/12/19 06:05:12;;;;;;;62.42;27.70;;;;;;;0.96;98.92;101807.22;4986314;28;20038;-78
2020/12/19 06:07:46;;;;;;;58.67;27.48;;;;;;;0.97;98.53;101803.72;4961043;28;20041;-79
2020/12/19 06:10:13;;;;;;;60.35;27.98;;;;;;;0.97;98.95;101806.31;4955867;28;20101;-77
2020/12/19 06:12:52;;;;;;;65.93;29.65;;;;;;;0.94;99.11;101796.13;4971833;28;20035;-78
2020/12/19 06:15:45;;;;;;;55.95;26.52;;;;;;;1.00;98.83;101800.22;4982604;28;20030;-79
2020/12/19 06:18:42;;;;;;;58.75;28.27;;;;;;;1.03;98.80;101797.50;4981982;28;20137;-78
2020/12/19 06:21:08;;;;;;;55.90;26.13;;;;;;;0.99;98.97;101795.94;4977398;28;20034;-78
2020/12/19 06:23:35;;;;;;;61.83;28.73;;;;;;;1.03;98.67;101792.31;4977471;28;20382;-77
2020/12/19 06:26:02;;;;;;;70.97;28.95;;;;;;;0.93;99.21;101783.25;4960799;28;20026;-75
2020/12/19 06:28:40;;;;;;;64.85;28.90;;;;;;;0.97;99.39;101795.97;4992258;28;20503;-79
2020/12/19 06:31:09;;;;;;;66.55;28.70;;;;;;;1.00;99.27;101794.19;4986993;28;20046;-80
2020/12/19 06:33:36;;;;;;;63.58;29.58;;;;;;;1.01;98.74;101780.38;4973042;28;20407;-77
2020/12/19 06:36:14;;;;;;;58.13;27.75;;;;;;;1.04;99.15;101785.44;5015820;28;20199;-77
2020/12/19 06:38:42;;;;;;;57.45;28.58;;;;;;;1.02;98.95;101784.63;4990240;28;20473;-77
2020/12/19 06:41:08;;;;;;;58.10;28.10;;;;;;;0.98;98.66;101778.75;4976841;28;20416;-78
2020/12/19 06:43:34;;;;;;;62.33;29.10;;;;;;;0.98;99.32;101781.34;4990217;28;20105;-77
2020/12/19 06:45:59;;;;;;;58.88;28.30;;;;;;;1.04;98.74;101782.84;4994296;28;20433;-78
2020/12/19 06:48:31;;;;;;;55.65;26.65;;;;;;;0.97;98.77;101783.06;4994197;28;20074;-78
2020/12/19 06:50:57;;;;;;;56.13;26.65;;;;;;;0.97;98.43;101787.41;4951806;28;20740;-77
2020/12/19 06:53:25;;;;;;;58.78;28.30;;;;;;;0.94;99.16;101790.97;4993728;28;20047;-77
2020/12/19 06:55:50;;;;;;;66.22;28.30;;;;;;;0.94;98.94;101787.50;4977898;28;20030;-76
2020/12/19 06:58:32;;;;;;;65.57;29.23;;;;;;;0.92;98.96;101790.16;4990051;28;20489;-76
2020/12/19 07:00:58;;;;;;;56.85;25.15;;;;;;;0.90;98.69;101789.38;4984504;28;20092;-77
2020/12/19 07:03:40;;;;;;;49.58;25.08;;;;;;;0.88;99.17;101790.34;5000070;28;20048;-77
2020/12/19 07:06:15;;;;;;;50.13;24.60;;;;;;;0.89;98.64;101787.69;4998668;28;20038;-78
2020/12/19 07:08:44;;;;;;;51.47;26.08;;;;;;;0.87;98.67;101788.66;4978494;28;20034;-77
2020/12/19 07:11:32;;;;;;;63.28;28.77;;;;;;;0.82;98.91;101782.81;4978419;28;20040;-77
2020/12/19 07:14:00;;;;;;;53.75;25.65;;;;;;;0.82;99.08;101790.56;4977152;28;20042;-78
2020/12/19 07:16:44;;;;;;;64.70;27.33;;;;;;;0.86;99.38;101790.38;4995976;28;20044;-78
2020/12/19 07:19:36;;;;;;;54.40;26.10;;;;;;;0.87;98.90;101786.91;4977936;28;20500;-77
2020/12/19 07:22:03;;;;;;;64.65;27.83;;;;;;;0.91;99.26;101785.88;4994704;28;20046;-79
2020/12/19 07:24:29;;;;;;;59.45;27.08;;;;;;;0.90;99.19;101779.03;4990123;28;20026;-78
2020/12/19 07:26:54;;;;;;;59.75;26.02;;;;;;;0.90;98.92;101784.19;4983708;28;20058;-79
2020/12/19 07:29:22;;;;;;;49.42;25.65;;;;;;;0.94;98.80;101778.03;4979960;28;20419;-78
2020/12/19 07:31:55;;;;;;;57.58;27.75;;;;;;;0.93;98.87;101784.09;4998315;28;20120;-77
2020/12/19 07:34:22;;;;;;;51.30;25.70;;;;;;;0.94;98.61;101785.78;4997600;28;20038;-78
2020/12/19 07:36:50;;;;;;;54.42;27.10;;;;;;;0.92;98.50;101781.56;4979416;28;20042;-78
2020/12/19 07:39:16;;;;;;;56.78;26.52;;;;;;;0.94;98.40;101774.59;4969544;28;20039;-78
2020/12/19 07:41:44;;;;;;;52.50;25.95;;;;;;;0.92;98.37;101787.59;4980787;28;20049;-77
2020/12/19 07:44:11;;;;;;;50.25;24.88;;;;;;;0.85;98.50;101783.56;4969786;28;20034;-77
2020/12/19 07:46:47;;;;;;;50.10;25.15;;;;;;;0.80;98.61;101792.38;4991366;28;20038;-79
2020/12/19 07:49:22;;;;;;;50.63;24.92;;;;;;;0.77;98.85;101789.00;4994898;28;20663;-78
2020/12/19 07:51:48;;;;;;;53.28;25.30;;;;;;;0.75;98.74;101785.66;4994545;28;20054;-78
2020/12/19 07:54:13;;;;;;;53.65;24.65;;;;;;;0.79;99.05;101791.50;4995071;28;20049;-77
2020/12/19 07:56:39;;;;;;;47.33;24.35;;;;;;;0.76;98.99;101787.31;4978572;28;20425;-78
2020/12/19 07:59:04;;;;;;;56.40;26.65;;;;;;;0.75;98.86;101785.66;4974174;28;20034;-78
2020/12/19 08:01:38;;;;;;;47.70;23.73;;;;;;;0.85;99.10;101793.03;4993877;28;20034;-77
2020/12/19 08:04:03;;;;;;;53.40;24.65;;;;;;;0.86;99.00;101789.56;4993903;28;20121;-76
2020/12/19 08:06:42;;;;;;;52.95;23.80;;;;;;;0.85;99.03;101790.44;4993408;28;20471;-77
2020/12/19 08:09:07;;;;;;;46.20;22.13;;;;;;;0.90;99.13;101791.13;4973350;28;20408;-77
2020/12/19 08:11:42;;;;;;;63.22;27.23;;;;;;;0.99;99.02;101780.44;4989386;28;20034;-78
2020/12/19 08:14:08;;;;;;;50.53;24.52;;;;;;;1.06;99.08;101784.47;4977910;28;20057;-76
2020/12/19 08:16:34;;;;;;;43.67;24.45;;;;;;;1.06;98.99;101781.03;4998254;28;20025;-77
2020/12/19 08:19:00;;;;;;;56.55;27.45;;;;;;;1.03;99.03;101778.56;4980185;28;20106;-76
2020/12/19 08:21:26;;;;;;;58.80;25.38;;;;;;;1.09;98.73;101791.25;4987678;28;20381;-78
2020/12/19 08:23:51;;;;;;;52.60;25.35;;;;;;;1.07;98.79;101783.53;4995209;28;20037;-76
2020/12/19 08:26:18;;;;;;;48.70;25.60;;;;;;;1.09;98.94;101783.50;4994745;28;20034;-78
2020/12/19 08:28:44;;;;;;;45.20;24.80;;;;;;;1.10;98.52;101780.84;4994573;28;20069;-76
2020/12/19 08:31:17;;;;;;;47.60;23.92;;;;;;;1.26;98.52;101785.41;4978235;28;20400;-76
2020/12/19 08:33:49;;;;;;;45.08;23.80;;;;;;;1.21;98.30;101785.59;5026483;28;20551;-77
2020/12/19 08:36:15;;;;;;;45.38;23.77;;;;;;;1.22;98.31;101779.53;4983758;28;20040;-78
2020/12/19 08:38:40;;;;;;;51.70;24.75;;;;;;;1.24;98.28;101774.28;4993278;28;20034;-78
2020/12/19 08:41:18;;;;;;;49.10;24.17;;;;;;;1.27;98.19;101777.59;5002343;28;20046;-78
2020/12/19 08:43:50;;;;;;;43.85;24.20;;;;;;;1.26;97.92;101769.91;4980157;28;20046;-75
2020/12/19 08:46:16;;;;;;;54.03;24.38;;;;;;;1.31;98.15;101778.31;4997297;28;20061;-77
2020/12/19 08:48:42;;;;;;;41.85;22.95;;;;;;;1.31;97.94;101776.56;4976047;28;20050;-79
2020/12/19 08:51:09;;;;;;;47.38;24.33;;;;;;;1.28;98.03;101779.31;4988892;28;20050;-77
2020/12/19 08:53:36;;;;;;;48.05;25.27;;;;;;;1.30;98.39;101777.50;4960844;28;20035;-77
2020/12/19 08:56:15;;;;;;;45.75;24.70;;;;;;;1.32;98.09;101770.50;4996202;28;20034;-79
2020/12/19 08:58:41;;;;;;;39.35;22.35;;;;;;;1.38;98.25;101769.44;5013498;28;20069;-77
2020/12/19 09:01:16;;;;;;;46.15;23.55;;;;;;;1.34;98.21;101776.47;5006358;28;20618;-77
2020/12/19 09:03:43;;;;;;;43.28;22.98;;;;;;;1.32;98.28;101773.09;4979290;28;20501;-77
2020/12/19 09:06:12;;;;;;;44.75;23.58;;;;;;;1.44;98.18;101769.16;4967963;28;20070;-76
2020/12/19 09:08:45;;;;;;;44.78;23.73;;;;;;;1.45;97.69;101770.88;4980867;28;20038;-77
2020/12/19 09:11:24;;;;;;;39.45;22.20;;;;;;;1.51;97.35;101773.19;4981427;28;20413;-77
2020/12/19 09:13:49;;;;;;;39.42;21.55;;;;;;;1.52;97.92;101767.09;5001343;28;20050;-78
2020/12/19 09:16:15;;;;;;;42.05;22.90;;;;;;;1.54;98.15;101764.47;4996171;28;20038;-79
2020/12/19 09:18:41;;;;;;;43.50;22.70;;;;;;;1.54;98.29;101767.91;4996634;28;20072;-77
2020/12/19 09:21:08;;;;;;;40.95;21.92;;;;;;;1.62;97.43;101762.41;4996549;28;20055;-76
2020/12/19 09:23:34;;;;;;;43.30;23.00;;;;;;;1.60;97.90;101759.06;4983821;28;20031;-76
2020/12/19 09:26:02;;;;;;;39.20;21.23;;;;;;;1.71;97.69;101759.44;4992818;28;20038;-77
2020/12/19 09:28:28;;;;;;;38.30;21.00;;;;;;;1.82;97.28;101747.78;4990367;28;20520;-77
2020/12/19 09:30:55;;;;;;;41.75;22.38;;;;;;;1.80;97.55;101734.09;4980531;28;20034;-77
2020/12/19 09:33:21;;;;;;;39.63;22.98;;;;;;;1.90;97.37;101741.41;4995729;28;20459;-78
2020/12/19 09:35:48;;;;;;;41.38;22.83;;;;;;;1.97;96.92;101749.72;4991496;28;20042;-78
2020/12/19 09:38:14;;;;;;;44.17;23.15;;;;;;;2.06;96.85;101741.56;4985242;28;20041;-79
2020/12/19 09:40:40;;;;;;;42.85;24.70;;;;;;;2.13;96.62;101739.56;5016266;28;20037;-79
2020/12/19 09:43:06;;;;;;;43.45;23.88;;;;;;;2.15;97.04;101737.75;4996493;28;20038;-78
2020/12/19 09:45:32;;;;;;;36.05;21.27;;;;;;;2.20;97.17;101734.94;4992829;28;20034;-78
2020/12/19 09:47:58;;;;;;;40.00;21.63;;;;;;;2.24;97.07;101729.56;4975901;28;20056;-79
2020/12/19 09:50:25;;;;;;;43.30;23.00;;;;;;;2.26;96.59;101740.69;4989392;28;20201;-80
2020/12/19 09:52:51;;;;;;;38.50;22.00;;;;;;;2.37;96.19;101729.84;4943635;28;20031;-78
2020/12/19 09:55:17;;;;;;;39.90;22.10;;;;;;;2.43;96.12;101731.31;4985141;28;20409;-78
2020/12/19 09:57:43;;;;;;;35.30;20.42;;;;;;;2.44;96.19;101720.06;4970933;28;20030;-78
2020/12/19 10:00:11;;;;;;;35.42;20.58;;;;;;;2.57;96.34;101734.13;4997141;28;20382;-78
2020/12/19 10:02:40;;;;;;;33.85;20.75;;;;;;;2.57;95.59;101733.28;4995677;28;20035;-77
2020/12/19 10:05:08;;;;;;;40.42;22.13;;;;;;;2.67;95.55;101740.53;4995146;28;20121;-78
2020/12/19 10:07:34;;;;;;;32.92;19.77;;;;;;;2.65;95.86;101726.81;4995544;28;20030;-79
2020/12/19 10:10:00;;;;;;;35.55;20.65;;;;;;;2.63;95.71;101728.66;4995478;28;20034;-78
2020/12/19 10:12:26;;;;;;;34.42;20.27;;;;;;;2.63;95.64;101720.88;4998006;28;20041;-79
2020/12/19 10:14:52;;;;;;;32.08;19.20;;;;;;;2.68;95.87;101721.50;4995387;28;20053;-79
2020/12/19 10:17:17;;;;;;;36.55;21.63;;;;;;;2.80;95.65;101724.44;4995090;28;20030;-79
2020/12/19 10:19:43;;;;;;;33.78;20.40;;;;;;;2.81;95.97;101713.16;5013346;28;20041;-79
2020/12/19 10:22:08;;;;;;;29.35;18.08;;;;;;;2.81;95.35;101711.41;4963566;28;20042;-77
2020/12/19 10:24:34;;;;;;;37.38;20.55;;;;;;;2.90;96.14;101705.78;4974792;28;20561;-79
2020/12/19 10:27:02;;;;;;;31.02;19.52;;;;;;;2.91;95.79;101697.09;4976230;28;20026;-78
2020/12/19 10:29:27;;;;;;;38.60;18.85;;;;;;;3.00;95.30;101689.81;4975673;28;20034;-78
2020/12/19 10:31:53;;;;;;;30.67;19.50;;;;;;;3.09;95.31;101697.97;4989941;28;20038;-78
2020/12/19 10:34:22;;;;;;;31.23;19.55;;;;;;;3.27;94.93;101695.38;4994339;28;20072;-78
2020/12/19 10:36:52;;;;;;;31.65;18.45;;;;;;;3.28;95.11;101694.47;4976284;28;20035;-77
2020/12/19 10:39:17;;;;;;;34.90;19.48;;;;;;;3.34;94.73;101699.34;4995662;28;20583;-76
2020/12/19 10:41:47;;;;;;;33.22;19.13;;;;;;;3.36;94.10;101689.75;4978771;28;20077;-77
2020/12/19 10:44:12;;;;;;;33.03;20.27;;;;;;;3.50;94.48;101702.88;4962394;28;20042;-78
2020/12/19 10:46:38;;;;;;;31.48;19.92;;;;;;;3.55;94.21;101689.66;4985379;28;20083;-78
2020/12/19 10:49:03;;;;;;;29.80;19.60;;;;;;;3.63;94.49;101690.09;4979242;28;20152;-78
2020/12/19 10:51:29;;;;;;;32.63;19.48;;;;;;;3.64;94.64;101683.16;4992690;28;20034;-79
2020/12/19 10:53:56;;;;;;;31.73;19.50;;;;;;;3.81;94.13;101685.72;4980308;28;20033;-78
2020/12/19 10:56:21;;;;;;;30.23;18.48;;;;;;;3.88;93.94;101684.50;4996842;28;20626;-78
2020/12/19 10:58:47;;;;;;;32.65;19.52;;;;;;;3.95;94.04;101685.00;4993889;28;20070;-79
2020/12/19 11:01:13;;;;;;;30.50;18.40;;;;;;;4.10;94.07;101670.38;5010385;28;20097;-78
2020/12/19 11:03:41;;;;;;;27.98;17.95;;;;;;;4.23;93.66;101679.19;5002315;28;20038;-79
2020/12/19 11:06:06;;;;;;;28.35;18.27;;;;;;;4.28;93.66;101668.56;4988978;28;20034;-78
2020/12/19 11:08:32;;;;;;;28.33;17.60;;;;;;;4.46;92.97;101675.34;4995294;28;20101;-79
2020/12/19 11:10:57;;;;;;;33.13;18.65;;;;;;;4.45;93.36;101668.47;4971830;28;20034;-79
2020/12/19 11:13:23;;;;;;;32.33;18.27;;;;;;;4.56;92.97;101670.47;4992690;28;20397;-78
2020/12/19 11:15:48;;;;;;;27.92;18.33;;;;;;;4.70;92.20;101661.91;4994610;28;20125;-79
2020/12/19 11:18:14;;;;;;;25.38;17.45;;;;;;;4.73;91.87;101646.16;4978074;28;20105;-79